createdAt,value
2022-12-18T00:02:49.480Z,101666.34
2022-12-18T00:05:53.245Z,101673.28
2022-12-18T00:08:57.187Z,101680.13
2022-12-18T00:11:59.629Z,101685.22
2022-12-18T00:15:01.789Z,101690.31
2022-12-18T00:18:04.533Z,101704.00
2022-12-18T00:21:08.485Z,101704.03
2022-12-18T00:24:11.990Z,101706.62
2022-12-18T00:27:14.113Z,101716.91
2022-12-18T00:30:16.626Z,101721.16
2022-12-18T00:33:19.209Z,101722.03
2022-12-18T00:36:33.560Z,101732.34
2022-12-18T00:39:35.848Z,101737.63
2022-12-18T00:42:56.386Z,101731.56
2022-12-18T00:45:58.605Z,101737.47
2022-12-18T00:49:01.567Z,101745.09
2022-12-18T00:52:03.722Z,101742.53
2022-12-18T00:55:06.811Z,101748.44
2022-12-18T00:58:10.215Z,101754.41
2022-12-18T01:01:12.808Z,101755.37
2022-12-18T01:04:15.542Z,101766.56
2022-12-18T01:07:20.814Z,101769.94
2022-12-18T01:10:24.517Z,101769.06
2022-12-18T01:13:27.034Z,101782.00
2022-12-18T01:16:29.227Z,101778.53
2022-12-18T01:19:32.534Z,101778.50
2022-12-18T01:22:34.751Z,101783.59
2022-12-18T01:25:37.691Z,101788.59
2022-12-18T01:28:41.081Z,101783.50
2022-12-18T01:31:43.733Z,101788.66
2022-12-18T01:34:45.949Z,101795.47
2022-12-18T01:37:48.382Z,101800.66
2022-12-18T01:40:50.530Z,101796.44
2022-12-18T01:43:58.236Z,101794.59
2022-12-18T01:47:00.897Z,101804.03
2022-12-18T01:50:15.692Z,101807.47
2022-12-18T01:53:21.570Z,101810.59
2022-12-18T01:56:24.211Z,101814.13
2022-12-18T01:59:26.516Z,101814.91
2022-12-18T02:02:30.676Z,101818.78
2022-12-18T02:05:54.089Z,101819.81
2022-12-18T02:09:14.827Z,101825.22
2022-12-18T02:12:22.175Z,101829.72
2022-12-18T02:15:53.691Z,101837.44
2022-12-18T02:19:00.131Z,101839.25
2022-12-18T02:22:12.521Z,101842.47
2022-12-18T02:25:27.296Z,101833.41
2022-12-18T02:28:34.429Z,101843.87
2022-12-18T02:31:43.536Z,101841.78
2022-12-18T02:34:47.271Z,101846.94
2022-12-18T02:37:50.967Z,101852.94
2022-12-18T02:40:54.754Z,101852.94
2022-12-18T02:44:03.010Z,101863.13
2022-12-18T02:47:06.380Z,101864.91
2022-12-18T02:50:19.736Z,101867.50
2022-12-18T02:53:58.859Z,101861.28
2022-12-18T02:57:13.473Z,101870.00
2022-12-18T03:00:21.463Z,101881.56
2022-12-18T03:03:47.026Z,101882.34
2022-12-18T03:06:56.693Z,101885.84
2022-12-18T03:10:02.048Z,101891.00
2022-12-18T03:13:09.402Z,101902.22
2022-12-18T03:16:18.943Z,101898.50
2022-12-18T03:19:24.936Z,101905.97
2022-12-18T03:22:30.858Z,101910.25
2022-12-18T03:25:34.430Z,101907.00
2022-12-18T03:28:43.347Z,101907.97
2022-12-18T03:31:55.299Z,101909.97
2022-12-18T03:35:01.939Z,101918.47
2022-12-18T03:38:05.670Z,101915.19
2022-12-18T03:41:24.799Z,101934.97
2022-12-18T03:44:41.498Z,101941.03
2022-12-18T03:48:02.787Z,101942.06
2022-12-18T03:51:16.159Z,101938.87
2022-12-18T03:54:20.043Z,101944.31
2022-12-18T03:57:29.402Z,101945.97
2022-12-18T04:00:33.121Z,101939.50
2022-12-18T04:03:38.619Z,101939.38
2022-12-18T04:06:44.471Z,101942.37
2022-12-18T04:09:49.953Z,101954.69
2022-12-18T04:12:57.406Z,101959.22
2022-12-18T04:16:00.488Z,101955.22
2022-12-18T04:19:03.112Z,101959.16
2022-12-18T04:22:06.674Z,101950.84
2022-12-18T04:25:10.062Z,101954.34
2022-12-18T04:28:12.974Z,101959.59
2022-12-18T04:31:15.156Z,101965.16
2022-12-18T04:34:17.843Z,101969.63
2022-12-18T04:37:20.409Z,101965.50
2022-12-18T04:40:24.663Z,101970.56
2022-12-18T04:43:27.196Z,101978.69
2022-12-18T04:46:29.842Z,101974.88
2022-12-18T04:49:32.040Z,101991.56
2022-12-18T04:52:34.719Z,101999.28
2022-12-18T04:55:36.854Z,102002.56
2022-12-18T04:58:41.352Z,102001.62
2022-12-18T05:01:43.733Z,102005.91
2022-12-18T05:04:47.019Z,102007.00
2022-12-18T05:07:49.232Z,102005.63
2022-12-18T05:11:00.337Z,102014.69
2022-12-18T05:14:02.434Z,102018.41
2022-12-18T05:17:04.870Z,102018.69
2022-12-18T05:20:07.448Z,102020.84
2022-12-18T05:23:09.911Z,102017.00
2022-12-18T05:26:16.522Z,102027.00
2022-12-18T05:29:18.948Z,102029.03
2022-12-18T05:32:21.120Z,102034.34
2022-12-18T05:35:23.586Z,102035.34
2022-12-18T05:38:27.627Z,102039.19
2022-12-18T05:41:30.071Z,102038.62
2022-12-18T05:44:32.224Z,102043.63
2022-12-18T05:47:34.761Z,102061.13
2022-12-18T05:50:38.039Z,102048.50
2022-12-18T05:53:40.755Z,102056.03
2022-12-18T05:56:48.519Z,102062.03
2022-12-18T05:59:51.355Z,102062.09
2022-12-18T06:02:53.639Z,102061.78
2022-12-18T06:05:56.179Z,102063.50
2022-12-18T06:09:01.073Z,102077.78
2022-12-18T06:12:03.701Z,102073.94
2022-12-18T06:15:06.706Z,102072.16
2022-12-18T06:18:09.161Z,102076.91
2022-12-18T06:21:11.371Z,102079.16
2022-12-18T06:24:13.774Z,102078.16
2022-12-18T06:27:16.207Z,102083.34
2022-12-18T06:30:18.701Z,102093.28
2022-12-18T06:33:20.823Z,102103.81
2022-12-18T06:36:23.302Z,102107.94
2022-12-18T06:39:25.889Z,102109.88
2022-12-18T06:42:29.574Z,102111.13
2022-12-18T06:45:31.764Z,102130.78
2022-12-18T06:48:34.497Z,102124.06
2022-12-18T06:51:36.823Z,102120.41
2022-12-18T06:54:39.218Z,102119.56
2022-12-18T06:57:41.404Z,102125.72
2022-12-18T07:00:43.934Z,102133.75
2022-12-18T07:03:46.557Z,102148.87
2022-12-18T07:06:49.040Z,102145.31
2022-12-18T07:09:52.233Z,102152.37
2022-12-18T07:12:54.728Z,102154.94
2022-12-18T07:15:56.977Z,102159.91
2022-12-18T07:18:59.457Z,102165.66
2022-12-18T07:22:02.508Z,102165.41
2022-12-18T07:25:05.933Z,102177.09
2022-12-18T07:28:10.574Z,102180.47
2022-12-18T07:31:19.505Z,102192.72
2022-12-18T07:34:23.665Z,102200.41
2022-12-18T07:37:26.122Z,102196.37
2022-12-18T07:40:28.288Z,102200.38
2022-12-18T07:43:30.840Z,102203.94
2022-12-18T07:46:32.971Z,102209.00
2022-12-18T07:49:35.445Z,102222.41
2022-12-18T07:52:37.591Z,102219.38
2022-12-18T07:56:05.353Z,102224.41
2022-12-18T07:59:05.288Z,102226.22
2022-12-18T08:02:07.901Z,102231.53
2022-12-18T08:05:10.562Z,102244.13
2022-12-18T08:08:12.689Z,102242.34
2022-12-18T08:11:15.115Z,102249.63
2022-12-18T08:14:17.384Z,102249.88
2022-12-18T08:17:20.871Z,102260.87
2022-12-18T08:20:23.103Z,102259.91
2022-12-18T08:23:28.632Z,102255.12
2022-12-18T08:26:32.393Z,102256.84
2022-12-18T08:29:34.844Z,102258.00
2022-12-18T08:32:37.425Z,102268.44
2022-12-18T08:35:45.599Z,102269.81
2022-12-18T08:38:48.593Z,102276.00
2022-12-18T08:42:10.419Z,102280.59
2022-12-18T08:45:12.808Z,102269.06
2022-12-18T08:48:19.298Z,102270.03
2022-12-18T08:51:24.286Z,102282.19
2022-12-18T08:54:27.720Z,102280.66
2022-12-18T08:57:29.961Z,102276.84
2022-12-18T09:00:32.510Z,102278.84
2022-12-18T09:03:34.736Z,102281.34
2022-12-18T09:06:37.918Z,102284.94
2022-12-18T09:09:40.350Z,102303.12
2022-12-18T09:12:42.777Z,102302.13
2022-12-18T09:15:47.448Z,102304.34
2022-12-18T09:18:50.019Z,102302.47
2022-12-18T09:21:52.249Z,102317.28
2022-12-18T09:24:54.959Z,102300.03
2022-12-18T09:27:57.077Z,102294.66
2022-12-18T09:30:59.698Z,102291.44
2022-12-18T09:34:01.877Z,102294.09
2022-12-18T09:37:04.372Z,102295.03
2022-12-18T09:40:07.128Z,102294.22
2022-12-18T09:43:18.729Z,102294.44
2022-12-18T09:46:29.468Z,102295.97
2022-12-18T09:49:36.029Z,102296.03
2022-12-18T09:52:42.802Z,102302.91
2022-12-18T09:55:47.710Z,102303.75
2022-12-18T09:59:04.295Z,102299.75
2022-12-18T10:02:17.462Z,102303.19
2022-12-18T10:05:40.412Z,102297.81
2022-12-18T10:09:09.080Z,102295.44
2022-12-18T10:12:28.728Z,102302.41
2022-12-18T10:15:57.550Z,102291.91
2022-12-18T10:19:06.800Z,102296.28
2022-12-18T10:22:17.660Z,102294.69
2022-12-18T10:25:25.490Z,102290.38
2022-12-18T10:28:30.159Z,102293.00
2022-12-18T10:31:32.770Z,102276.59
2022-12-18T10:34:35.041Z,102287.87
2022-12-18T10:37:37.754Z,102286.12
2022-12-18T10:40:50.265Z,102275.81
2022-12-18T10:44:21.938Z,102274.06
2022-12-18T10:47:24.162Z,102281.84
2022-12-18T10:51:01.824Z,102286.16
2022-12-18T10:54:00.811Z,102281.84
2022-12-18T10:57:28.478Z,102274.94
2022-12-18T11:00:31.659Z,102279.25
2022-12-18T11:03:40.727Z,102278.38
2022-12-18T11:07:12.206Z,102281.84
2022-12-18T11:10:18.946Z,102277.53
2022-12-18T11:13:24.647Z,102273.19
2022-12-18T11:16:28.730Z,102270.59
2022-12-18T11:19:40.704Z,102272.34
2022-12-18T11:22:43.718Z,102271.47
2022-12-18T11:25:54.716Z,102265.41
2022-12-18T11:29:16.762Z,102267.16
2022-12-18T11:32:40.932Z,102274.00
2022-12-18T11:36:03.689Z,102275.75
2022-12-18T11:39:18.289Z,102264.56
2022-12-18T11:42:42.165Z,102274.03
2022-12-18T11:45:53.618Z,102267.09
2022-12-18T11:49:18.307Z,102261.94
2022-12-18T11:52:51.519Z,102261.94
2022-12-18T11:56:02.531Z,102255.06
2022-12-18T11:59:16.631Z,102248.13
2022-12-18T12:02:28.409Z,102246.41
2022-12-18T12:05:49.721Z,102245.53
2022-12-18T12:09:05.650Z,102242.00
2022-12-18T12:12:49.386Z,102242.03
2022-12-18T12:16:13.868Z,102247.16
2022-12-18T12:19:40.632Z,102248.81
2022-12-18T12:22:57.451Z,102241.06
2022-12-18T12:26:03.924Z,102234.00
2022-12-18T12:29:13.411Z,102232.31
2022-12-18T12:32:24.044Z,102238.44
2022-12-18T12:35:50.328Z,102242.81
2022-12-18T12:39:02.334Z,102242.72
2022-12-18T12:42:29.172Z,102243.59
2022-12-18T12:45:41.430Z,102236.72
2022-12-18T12:48:53.972Z,102247.91
2022-12-18T12:52:07.013Z,102259.25
2022-12-18T12:55:18.455Z,102265.28
2022-12-18T12:58:37.262Z,102271.28
2022-12-18T13:01:54.071Z,102279.97
2022-12-18T13:05:02.920Z,102280.00
2022-12-18T13:08:08.618Z,102273.97
2022-12-18T13:11:59.487Z,102278.31
2022-12-18T13:15:36.834Z,102282.69
2022-12-18T13:18:53.628Z,102285.22
2022-12-18T13:21:57.318Z,102294.72
2022-12-18T13:25:00.461Z,102283.50
2022-12-18T13:28:17.473Z,102289.56
2022-12-18T13:31:43.461Z,102294.75
2022-12-18T13:34:45.716Z,102293.91
2022-12-18T13:37:56.156Z,102293.94
2022-12-18T13:41:02.235Z,102297.38
2022-12-18T13:44:25.090Z,102305.16
2022-12-18T13:47:34.107Z,102299.97
2022-12-18T13:50:37.129Z,102299.12
2022-12-18T13:53:45.632Z,102307.75
2022-12-18T13:56:49.427Z,102308.63
2022-12-18T13:59:52.453Z,102303.44
2022-12-18T14:02:56.270Z,102314.66
2022-12-18T14:06:06.909Z,102314.66
2022-12-18T14:09:19.003Z,102318.09
2022-12-18T14:12:45.582Z,102321.56
2022-12-18T14:15:50.031Z,102313.78
2022-12-18T14:19:02.738Z,102316.38
2022-12-18T14:22:22.341Z,102318.09
2022-12-18T14:25:27.149Z,102318.06
2022-12-18T14:28:29.625Z,102315.47
2022-12-18T14:31:32.738Z,102326.66
2022-12-18T14:34:34.929Z,102330.94
2022-12-18T14:37:40.966Z,102330.03
2022-12-18T14:40:44.495Z,102330.00
2022-12-18T14:43:49.241Z,102332.56
2022-12-18T14:46:52.240Z,102338.56
2022-12-18T14:49:55.381Z,102341.94
2022-12-18T14:52:57.666Z,102345.28
2022-12-18T14:56:00.838Z,102349.59
2022-12-18T14:59:23.774Z,102356.41
2022-12-18T15:02:29.462Z,102365.84
2022-12-18T15:05:32.574Z,102359.75
2022-12-18T15:08:38.421Z,102362.31
2022-12-18T15:11:40.509Z,102368.28
2022-12-18T15:14:43.132Z,102379.34
2022-12-18T15:17:45.310Z,102375.00
2022-12-18T15:20:50.006Z,102385.28
2022-12-18T15:23:53.510Z,102384.38
2022-12-18T15:26:56.176Z,102385.16
2022-12-18T15:30:26.786Z,102389.47
2022-12-18T15:33:43.183Z,102398.78
2022-12-18T15:36:46.023Z,102407.28
2022-12-18T15:39:48.525Z,102412.28
2022-12-18T15:43:13.420Z,102408.91
2022-12-18T15:46:24.221Z,102420.06
2022-12-18T15:49:26.554Z,102416.56
2022-12-18T15:52:29.193Z,102421.62
2022-12-18T15:55:49.786Z,102424.03
2022-12-18T15:58:52.289Z,102430.06
2022-12-18T16:01:54.610Z,102436.09
2022-12-18T16:04:57.550Z,102432.56
2022-12-18T16:07:59.775Z,102443.66
2022-12-18T16:11:02.728Z,102440.13
2022-12-18T16:14:07.210Z,102445.25
2022-12-18T16:17:12.525Z,102443.47
2022-12-18T16:20:17.051Z,102441.72
2022-12-18T16:23:19.512Z,102443.34
2022-12-18T16:26:21.654Z,102456.09
2022-12-18T16:29:27.889Z,102453.66
2022-12-18T16:32:30.101Z,102455.28
2022-12-18T16:35:33.570Z,102458.78
2022-12-18T16:38:35.755Z,102470.00
2022-12-18T16:41:38.312Z,102463.03
2022-12-18T16:44:40.545Z,102459.53
2022-12-18T16:47:43.408Z,102472.41
2022-12-18T16:50:45.574Z,102479.88
2022-12-18T16:53:48.069Z,102476.53
2022-12-18T16:56:51.376Z,102482.13
2022-12-18T16:59:53.958Z,102486.28
2022-12-18T17:02:56.194Z,102484.66
2022-12-18T17:06:05.456Z,102491.00
2022-12-18T17:09:11.766Z,102474.84
2022-12-18T17:12:14.295Z,102474.09
2022-12-18T17:15:16.485Z,102471.34
2022-12-18T17:18:19.742Z,102463.38
2022-12-18T17:21:22.026Z,102465.47
2022-12-18T17:24:24.751Z,102459.69
2022-12-18T17:27:26.916Z,102456.94
2022-12-18T17:30:29.891Z,102464.09
2022-12-18T17:33:32.467Z,102472.78
2022-12-18T17:36:34.958Z,102471.13
2022-12-18T17:39:37.266Z,102469.41
2022-12-18T17:42:39.752Z,102480.75
2022-12-18T17:45:44.914Z,102473.81
2022-12-18T17:48:48.025Z,102483.34
2022-12-18T17:51:50.298Z,102480.97
2022-12-18T17:54:52.796Z,102490.53
2022-12-18T17:57:55.449Z,102483.38
2022-12-18T18:00:57.924Z,102481.94
2022-12-18T18:04:01.971Z,102476.22
2022-12-18T18:07:04.271Z,102481.81
2022-12-18T18:10:08.187Z,102472.09
2022-12-18T18:13:44.913Z,102477.03
2022-12-18T18:16:51.320Z,102478.97
2022-12-18T18:19:53.537Z,102493.66
2022-12-18T18:22:57.102Z,102483.56
2022-12-18T18:26:03.921Z,102487.25
2022-12-18T18:29:07.795Z,102487.91
2022-12-18T18:32:10.808Z,102490.87
2022-12-18T18:35:44.736Z,102484.75
2022-12-18T18:38:39.064Z,102487.56
2022-12-18T18:41:42.801Z,102498.00
2022-12-18T18:44:50.230Z,102507.44
2022-12-18T18:47:52.707Z,102510.12
2022-12-18T18:50:59.746Z,102504.63
2022-12-18T18:54:02.747Z,102506.09
2022-12-18T18:57:20.304Z,102507.84
2022-12-18T19:00:23.495Z,102512.94
2022-12-18T19:03:26.212Z,102509.69
2022-12-18T19:06:29.037Z,102516.44
2022-12-18T19:09:32.057Z,102527.12
2022-12-18T19:12:53.449Z,102524.09
2022-12-18T19:16:06.395Z,102525.78
2022-12-18T19:19:09.558Z,102532.91
2022-12-18T19:22:12.227Z,102537.44
2022-12-18T19:25:14.822Z,102539.34
2022-12-18T19:28:22.177Z,102543.28
2022-12-18T19:31:29.168Z,102543.88
2022-12-18T19:34:34.520Z,102550.97
2022-12-18T19:37:36.904Z,102552.41
2022-12-18T19:40:43.496Z,102558.41
2022-12-18T19:43:47.962Z,102553.47
2022-12-18T19:46:51.486Z,102556.59
2022-12-18T19:49:53.971Z,102561.41
2022-12-18T19:52:56.271Z,102563.72
2022-12-18T19:55:58.899Z,102567.47
2022-12-18T19:59:02.009Z,102572.34
2022-12-18T20:02:04.652Z,102576.31
2022-12-18T20:05:09.856Z,102573.25
2022-12-18T20:08:12.638Z,102571.09
2022-12-18T20:11:15.174Z,102572.47
2022-12-18T20:14:22.883Z,102573.81
2022-12-18T20:17:26.129Z,102582.81
2022-12-18T20:20:28.993Z,102576.84
2022-12-18T20:23:32.207Z,102581.59
2022-12-18T20:26:35.928Z,102593.34
2022-12-18T20:29:38.403Z,102601.38
2022-12-18T20:32:40.542Z,102600.94
2022-12-18T20:35:43.362Z,102602.41
2022-12-18T20:38:46.202Z,102603.09
2022-12-18T20:41:50.893Z,102601.81
2022-12-18T20:44:53.055Z,102607.19
2022-12-18T20:47:55.529Z,102599.16
2022-12-18T20:51:04.082Z,102603.03
2022-12-18T20:54:11.533Z,102604.38
2022-12-18T20:57:14.298Z,102608.03
2022-12-18T21:00:20.231Z,102608.91
2022-12-18T21:03:23.514Z,102605.06
2022-12-18T21:06:28.799Z,102613.84
2022-12-18T21:09:37.154Z,102623.31
2022-12-18T21:12:49.708Z,102620.37
2022-12-18T21:16:02.424Z,102618.03
2022-12-18T21:19:05.631Z,102624.00
2022-12-18T21:22:07.942Z,102620.78
2022-12-18T21:25:10.443Z,102625.88
2022-12-18T21:28:12.618Z,102613.59
2022-12-18T21:31:15.158Z,102622.69
2022-12-18T21:34:23.061Z,102622.25
2022-12-18T21:37:25.460Z,102612.16
2022-12-18T21:40:27.566Z,102604.34
2022-12-18T21:44:05.346Z,102607.47
2022-12-18T21:47:17.637Z,102604.19
2022-12-18T21:50:25.564Z,102599.25
2022-12-18T21:53:27.697Z,102595.63
2022-12-18T21:57:06.061Z,102596.50
2022-12-18T22:00:18.174Z,102606.69
2022-12-18T22:03:22.077Z,102606.84
2022-12-18T22:06:24.296Z,102600.94
2022-12-18T22:09:26.822Z,102603.72
2022-12-18T22:12:43.358Z,102599.81
2022-12-18T22:15:47.488Z,102598.81
2022-12-18T22:18:49.816Z,102598.75
2022-12-18T22:21:53.017Z,102594.44
2022-12-18T22:24:55.172Z,102596.09
2022-12-18T22:28:16.285Z,102599.41
2022-12-18T22:31:18.388Z,102598.91
2022-12-18T22:34:23.181Z,102607.81
2022-12-18T22:37:25.642Z,102597.44
2022-12-18T22:40:28.451Z,102599.13
2022-12-18T22:43:30.634Z,102605.47
2022-12-18T22:46:37.674Z,102615.56
2022-12-18T22:49:39.964Z,102606.09
2022-12-18T22:52:42.458Z,102612.31
2022-12-18T22:55:44.602Z,102617.72
2022-12-18T22:58:51.453Z,102616.03
2022-12-18T23:01:58.370Z,102619.87
2022-12-18T23:05:01.655Z,102629.22
2022-12-18T23:08:03.961Z,102623.13
2022-12-18T23:11:06.738Z,102624.00
2022-12-18T23:14:08.942Z,102621.56
2022-12-18T23:17:11.881Z,102619.28
2022-12-18T23:20:14.154Z,102615.16
2022-12-18T23:23:17.283Z,102622.97
2022-12-18T23:26:22.366Z,102631.81
2022-12-18T23:29:24.762Z,102626.53
2022-12-18T23:32:26.941Z,102629.87
2022-12-18T23:35:30.586Z,102616.31
2022-12-18T23:38:33.741Z,102622.59
2022-12-18T23:41:36.290Z,102621.97
2022-12-18T23:44:38.414Z,102623.31
2022-12-18T23:47:40.842Z,102618.78
2022-12-18T23:50:43.033Z,102620.69
2022-12-18T23:53:45.969Z,102617.81
2022-12-18T23:56:48.153Z,102622.25
2022-12-18T23:59:53.210Z,102632.59
